KDAG/DAG METAR and TAF weather

Enter ICAO airport designator
Station Type Date Time Source
KDAG METAR 2020/09/25 18:50 UTC NOAA

KDAG 251850Z AUTO 30011KT 10SM CLR 32/02 A2997 RMK AO2 SLP120 T03220017


Station Type Date Time Source
KDAG Decoded METAR 2020/09/25 18:50 UTC NOAA

BARSTOW-DAGGETT AIRPORT, CA, United States (KDAG) 34-51N 116-47W 587M
Sep 25, 2020 - 02:50 PM EDT / 2020.09.25 1850 UTC
Wind: from the WNW (300 degrees) at 13 MPH (11 KT):0
Visibility: 10 mile(s):0
Sky conditions: clear
Temperature: 90.0 F (32.2 C)
Dew Point: 35.1 F (1.7 C)
Relative Humidity: 14%
Pressure (altimeter): 29.97 in. Hg (1014 hPa)
ob: KDAG 251850Z AUTO 30011KT 10SM CLR 32/02 A2997 RMK AO2 SLP120 T03220017
cycle: 19

Station Type Date Time Source
KDAG TAF 2020/09/25 18:51 UTC NOAA

TAF KDAG 251749Z 2518/2618 27012KT P6SM SKC
FM261600 26008KT P6SM SKC

Example: see airport list